createdAt,value
2023-05-07T00:02:04.954Z,2.00
2023-05-07T00:04:37.803Z,4.15
2023-05-07T00:07:07.684Z,1.80
2023-05-07T00:09:35.825Z,1.83
2023-05-07T00:12:04.073Z,3.28
2023-05-07T00:14:32.162Z,3.42
2023-05-07T00:17:00.307Z,1.40
2023-05-07T00:19:28.488Z,1.45
2023-05-07T00:21:57.092Z,1.67
2023-05-07T00:24:26.930Z,3.53
2023-05-07T00:26:55.088Z,2.15
2023-05-07T00:29:23.174Z,1.63
2023-05-07T00:31:52.110Z,1.85
2023-05-07T00:34:21.184Z,2.05
2023-05-07T00:36:49.260Z,1.70
2023-05-07T00:39:17.527Z,2.20
2023-05-07T00:41:47.280Z,2.30
2023-05-07T00:44:15.637Z,2.53
2023-05-07T00:46:43.866Z,3.38
2023-05-07T00:49:12.530Z,3.50
2023-05-07T00:51:40.676Z,3.30
2023-05-07T00:54:09.617Z,1.35
2023-05-07T00:56:38.264Z,1.73
2023-05-07T00:59:08.060Z,1.98
2023-05-07T01:01:36.261Z,2.58
2023-05-07T01:04:04.685Z,1.40
2023-05-07T01:06:34.635Z,2.75
2023-05-07T01:09:05.627Z,2.05
2023-05-07T01:11:34.046Z,2.78
2023-05-07T01:14:02.661Z,3.70
2023-05-07T01:16:32.276Z,2.28
2023-05-07T01:19:00.758Z,2.05
2023-05-07T01:21:31.461Z,2.53
2023-05-07T01:24:01.210Z,3.60
2023-05-07T01:26:29.352Z,2.45
2023-05-07T01:28:57.397Z,2.00
2023-05-07T01:31:26.413Z,2.28
2023-05-07T01:33:56.170Z,2.17
2023-05-07T01:36:27.227Z,3.20
2023-05-07T01:38:55.872Z,2.42
2023-05-07T01:41:25.788Z,2.40
2023-05-07T01:43:54.522Z,1.90
2023-05-07T01:46:23.327Z,3.63
2023-05-07T01:48:53.172Z,3.33
2023-05-07T01:51:23.199Z,1.83
2023-05-07T01:53:52.046Z,3.70
2023-05-07T01:56:22.011Z,2.05
2023-05-07T01:58:52.756Z,2.95
2023-05-07T02:01:20.899Z,2.25
2023-05-07T02:03:49.459Z,2.40
2023-05-07T02:06:17.831Z,2.50
2023-05-07T02:08:45.913Z,4.05
2023-05-07T02:11:14.318Z,3.28
2023-05-07T02:13:42.432Z,2.08
2023-05-07T02:16:12.028Z,2.33
2023-05-07T02:18:40.116Z,3.60
2023-05-07T02:21:08.171Z,3.63
2023-05-07T02:23:36.245Z,4.10
2023-05-07T02:26:04.344Z,3.00
2023-05-07T02:28:32.469Z,2.97
2023-05-07T02:31:01.598Z,2.22
2023-05-07T02:33:31.683Z,4.40
2023-05-07T02:36:06.940Z,2.20
2023-05-07T02:38:35.066Z,2.47
2023-05-07T02:41:03.519Z,2.42
2023-05-07T02:43:32.153Z,3.35
2023-05-07T02:46:04.985Z,2.47
2023-05-07T02:48:34.643Z,4.47
2023-05-07T02:51:03.372Z,3.97
2023-05-07T02:53:31.571Z,2.38
2023-05-07T02:56:00.890Z,2.55
2023-05-07T02:58:29.610Z,2.45
2023-05-07T03:00:57.771Z,2.40
2023-05-07T03:03:25.928Z,2.78
2023-05-07T03:05:55.546Z,3.47
2023-05-07T03:08:23.667Z,4.35
2023-05-07T03:10:51.794Z,3.10
2023-05-07T03:13:20.063Z,3.83
2023-05-07T03:15:48.182Z,2.70
2023-05-07T03:18:16.532Z,2.55
2023-05-07T03:20:44.746Z,3.83
2023-05-07T03:23:14.295Z,2.90
2023-05-07T03:25:42.453Z,2.70
2023-05-07T03:28:10.530Z,3.72
2023-05-07T03:30:38.709Z,3.72
2023-05-07T03:33:06.877Z,4.32
2023-05-07T03:35:34.974Z,6.63
2023-05-07T03:38:04.313Z,3.92
2023-05-07T03:40:33.840Z,3.30
2023-05-07T03:43:02.550Z,3.15
2023-05-07T03:45:30.628Z,4.60
2023-05-07T03:47:58.803Z,5.30
2023-05-07T03:50:27.048Z,4.53
2023-05-07T03:52:55.197Z,5.85
2023-05-07T03:55:23.890Z,3.92
2023-05-07T03:57:53.325Z,4.35
2023-05-07T04:00:22.604Z,4.57
2023-05-07T04:02:50.884Z,5.05
2023-05-07T04:05:19.061Z,4.13
2023-05-07T04:07:47.172Z,6.60
2023-05-07T04:10:15.556Z,5.07
2023-05-07T04:12:43.649Z,6.70
2023-05-07T04:15:13.516Z,5.18
2023-05-07T04:17:42.482Z,4.93
2023-05-07T04:20:12.116Z,7.70
2023-05-07T04:22:40.429Z,5.82
2023-05-07T04:25:10.118Z,5.55
2023-05-07T04:27:38.670Z,7.03
2023-05-07T04:30:08.114Z,7.13
2023-05-07T04:32:38.440Z,6.20
2023-05-07T04:35:07.379Z,6.78
2023-05-07T04:37:36.069Z,9.63
2023-05-07T04:40:05.225Z,9.43
2023-05-07T04:42:33.309Z,10.10
2023-05-07T04:45:02.146Z,9.80
2023-05-07T04:47:30.256Z,9.60
2023-05-07T04:49:59.940Z,10.35
2023-05-07T04:52:28.044Z,11.18
2023-05-07T04:54:56.184Z,15.68
2023-05-07T04:57:24.395Z,12.13
2023-05-07T04:59:52.477Z,10.10
2023-05-07T05:02:20.880Z,10.98
2023-05-07T05:04:49.151Z,11.73
2023-05-07T05:07:18.656Z,12.00
2023-05-07T05:09:46.874Z,13.50
2023-05-07T05:12:14.943Z,14.73
2023-05-07T05:14:43.908Z,12.25
2023-05-07T05:17:12.146Z,14.25
2023-05-07T05:19:40.280Z,15.13
2023-05-07T05:22:08.337Z,15.07
2023-05-07T05:24:38.084Z,12.88
2023-05-07T05:27:06.548Z,12.85
2023-05-07T05:29:34.657Z,14.10
2023-05-07T05:32:02.828Z,15.32
2023-05-07T05:34:30.955Z,14.15
2023-05-07T05:36:59.075Z,14.68
2023-05-07T05:39:27.232Z,13.90
2023-05-07T05:41:56.669Z,14.07
2023-05-07T05:44:24.757Z,15.43
2023-05-07T05:46:52.902Z,13.45
2023-05-07T05:49:20.999Z,14.98
2023-05-07T05:51:49.066Z,16.00
2023-05-07T05:54:17.274Z,16.38
2023-05-07T05:56:45.615Z,14.80
2023-05-07T05:59:15.256Z,15.93
2023-05-07T06:01:43.434Z,15.68
2023-05-07T06:04:11.557Z,18.20
2023-05-07T06:06:39.661Z,15.52
2023-05-07T06:09:07.740Z,14.82
2023-05-07T06:11:35.984Z,16.73
2023-05-07T06:14:04.094Z,18.83
2023-05-07T06:16:33.618Z,17.55
2023-05-07T06:19:01.707Z,16.75
2023-05-07T06:21:29.824Z,15.63
2023-05-07T06:23:57.868Z,18.60
2023-05-07T06:26:26.381Z,17.42
2023-05-07T06:28:54.452Z,17.95
2023-05-07T06:31:22.822Z,17.40
2023-05-07T06:33:52.501Z,17.40
2023-05-07T06:36:20.556Z,17.40
2023-05-07T06:38:48.696Z,17.02
2023-05-07T06:41:16.781Z,15.98
2023-05-07T06:43:44.858Z,16.45
2023-05-07T06:46:12.950Z,19.25
2023-05-07T06:48:41.041Z,17.10
2023-05-07T06:51:10.472Z,17.85
2023-05-07T06:53:38.557Z,19.88
2023-05-07T06:56:07.148Z,17.13
2023-05-07T06:58:35.426Z,18.65
2023-05-07T07:01:03.533Z,17.25
2023-05-07T07:03:32.232Z,16.35
2023-05-07T07:06:00.339Z,17.52
2023-05-07T07:08:29.784Z,16.13
2023-05-07T07:10:57.907Z,21.77
2023-05-07T07:13:26.187Z,16.90
2023-05-07T07:15:54.918Z,15.73
2023-05-07T07:18:23.102Z,16.23
2023-05-07T07:20:51.287Z,15.63
2023-05-07T07:23:19.410Z,15.52
2023-05-07T07:25:49.375Z,16.95
2023-05-07T07:28:17.464Z,14.95
2023-05-07T07:30:45.644Z,17.40
2023-05-07T07:33:13.943Z,17.55
2023-05-07T07:35:42.636Z,20.25
2023-05-07T07:38:10.817Z,15.02
2023-05-07T07:40:38.991Z,16.48
2023-05-07T07:43:08.555Z,16.58
2023-05-07T07:45:36.990Z,14.38
2023-05-07T07:48:05.666Z,15.43
2023-05-07T07:50:44.296Z,15.88
2023-05-07T07:53:13.074Z,14.43
2023-05-07T07:55:41.781Z,15.60
2023-05-07T07:58:11.211Z,16.55
2023-05-07T08:00:39.324Z,14.48
2023-05-07T08:03:08.471Z,14.88
2023-05-07T08:05:37.303Z,17.73
2023-05-07T08:08:05.880Z,14.68
2023-05-07T08:10:35.866Z,15.07
2023-05-07T08:13:04.974Z,15.98
2023-05-07T08:15:34.706Z,14.25
2023-05-07T08:18:04.044Z,14.10
2023-05-07T08:20:32.290Z,11.77
2023-05-07T08:23:00.453Z,13.63
2023-05-07T08:25:28.541Z,15.25
2023-05-07T08:27:56.605Z,14.23
2023-05-07T08:30:24.670Z,13.88
2023-05-07T08:32:54.148Z,14.13
2023-05-07T08:35:22.480Z,13.43
2023-05-07T08:37:50.647Z,13.15
2023-05-07T08:40:19.155Z,13.48
2023-05-07T08:42:51.242Z,13.77
2023-05-07T08:45:21.180Z,14.15
2023-05-07T08:47:52.730Z,13.43
2023-05-07T08:50:22.981Z,12.73
2023-05-07T08:52:51.171Z,11.10
2023-05-07T08:55:20.579Z,10.82
2023-05-07T08:57:49.457Z,11.75
2023-05-07T09:00:19.169Z,10.65
2023-05-07T09:02:47.417Z,13.88
2023-05-07T09:05:15.636Z,11.43
2023-05-07T09:07:45.510Z,13.60
2023-05-07T09:10:14.442Z,11.45
2023-05-07T09:12:42.628Z,10.65
2023-05-07T09:15:11.880Z,8.18
2023-05-07T09:17:42.205Z,9.38
2023-05-07T09:20:11.389Z,11.00
2023-05-07T09:22:39.988Z,10.52
2023-05-07T09:25:11.356Z,11.10
2023-05-07T09:27:39.868Z,10.77
2023-05-07T09:30:09.351Z,8.13
2023-05-07T09:32:39.159Z,8.45
2023-05-07T09:35:08.636Z,8.20
2023-05-07T09:37:37.665Z,7.88
2023-05-07T09:40:07.795Z,8.18
2023-05-07T09:42:37.362Z,8.65
2023-05-07T09:45:08.525Z,8.15
2023-05-07T09:47:41.012Z,8.88
2023-05-07T09:50:12.677Z,7.80
2023-05-07T09:52:42.815Z,9.40
2023-05-07T09:55:12.119Z,10.45
2023-05-07T09:57:44.106Z,9.30
2023-05-07T10:00:14.071Z,7.78
2023-05-07T10:02:49.027Z,7.95
2023-05-07T10:05:17.542Z,10.20
2023-05-07T10:07:46.743Z,9.60
2023-05-07T10:10:16.406Z,8.63
2023-05-07T10:12:46.082Z,8.73
2023-05-07T10:15:15.467Z,8.45
2023-05-07T10:17:44.013Z,7.53
2023-05-07T10:20:12.748Z,7.55
2023-05-07T10:22:43.993Z,6.85
2023-05-07T10:25:18.737Z,8.07
2023-05-07T10:27:50.368Z,10.02
2023-05-07T10:30:30.718Z,7.28
2023-05-07T10:33:07.837Z,7.82
2023-05-07T10:35:42.873Z,8.70
2023-05-07T10:38:11.364Z,7.10
2023-05-07T10:40:39.546Z,7.82
2023-05-07T10:43:10.840Z,6.07
2023-05-07T10:45:39.328Z,10.05
2023-05-07T10:50:47.512Z,6.10
2023-05-07T10:53:36.411Z,7.07
2023-05-07T10:56:30.325Z,6.97
2023-05-07T10:59:34.784Z,7.97
2023-05-07T11:02:05.197Z,5.97
2023-05-07T11:04:36.032Z,6.10
2023-05-07T11:07:26.965Z,6.50
2023-05-07T11:10:16.567Z,10.07
2023-05-07T11:12:51.927Z,6.72
2023-05-07T11:15:45.225Z,7.57
2023-05-07T11:18:15.105Z,8.30
2023-05-07T11:20:54.692Z,6.28
2023-05-07T11:24:08.640Z,7.30
2023-05-07T11:29:21.897Z,6.32
2023-05-07T11:31:53.438Z,9.45
2023-05-07T11:34:25.320Z,6.43
2023-05-07T11:36:54.221Z,5.15
2023-05-07T11:39:33.934Z,6.60
2023-05-07T11:42:03.094Z,8.45
2023-05-07T11:44:47.672Z,5.80
2023-05-07T11:47:21.878Z,6.95
2023-05-07T11:49:51.462Z,7.22
2023-05-07T11:52:21.242Z,6.82
2023-05-07T11:54:51.858Z,5.25
2023-05-07T11:57:19.993Z,6.30
2023-05-07T11:59:49.092Z,6.10
2023-05-07T12:02:17.582Z,6.80
2023-05-07T12:04:47.158Z,5.82
2023-05-07T12:07:15.807Z,6.22
2023-05-07T12:09:44.031Z,6.25
2023-05-07T12:12:12.313Z,7.30
2023-05-07T12:14:42.054Z,5.90
2023-05-07T12:17:10.865Z,6.35
2023-05-07T12:19:40.025Z,7.35
2023-05-07T12:22:10.269Z,6.35
2023-05-07T12:24:46.682Z,5.65
2023-05-07T12:27:15.924Z,8.35
2023-05-07T12:29:47.345Z,6.00
2023-05-07T12:32:17.036Z,6.32
2023-05-07T12:34:45.995Z,5.00
2023-05-07T12:37:16.005Z,5.65
2023-05-07T12:39:47.208Z,4.45
2023-05-07T12:42:18.153Z,4.13
2023-05-07T12:44:48.397Z,4.55
2023-05-07T12:47:17.449Z,4.80
2023-05-07T12:49:47.326Z,4.90
2023-05-07T12:52:16.976Z,6.10
2023-05-07T12:54:47.019Z,4.70
2023-05-07T12:57:15.087Z,4.68
2023-05-07T12:59:43.846Z,5.50
2023-05-07T13:02:12.120Z,4.03
2023-05-07T13:04:40.543Z,3.55
2023-05-07T13:07:08.764Z,3.78
2023-05-07T13:09:39.371Z,4.82
2023-05-07T13:12:08.148Z,3.88
2023-05-07T13:14:36.457Z,3.50
2023-05-07T13:17:04.584Z,5.35
2023-05-07T13:19:32.686Z,3.50
2023-05-07T13:22:01.052Z,3.92
2023-05-07T13:24:29.205Z,4.00
2023-05-07T13:26:58.622Z,3.97
2023-05-07T13:29:30.976Z,3.53
2023-05-07T13:31:59.372Z,4.07
2023-05-07T13:34:27.568Z,4.90
2023-05-07T13:36:56.195Z,3.10
2023-05-07T13:39:24.396Z,3.88
2023-05-07T13:41:52.512Z,5.00
2023-05-07T13:44:22.289Z,3.65
2023-05-07T13:46:50.388Z,3.70
2023-05-07T13:49:18.459Z,3.78
2023-05-07T13:51:46.564Z,4.78
2023-05-07T13:54:14.635Z,3.28
2023-05-07T13:56:42.754Z,3.22
2023-05-07T13:59:10.837Z,3.65
2023-05-07T14:01:40.317Z,3.63
2023-05-07T14:04:08.846Z,4.57
2023-05-07T14:06:36.986Z,2.90
2023-05-07T14:09:05.254Z,7.30
2023-05-07T14:11:34.125Z,5.78
2023-05-07T14:14:04.179Z,3.45
2023-05-07T14:16:32.329Z,3.25
2023-05-07T14:19:01.876Z,4.25
2023-05-07T14:21:30.009Z,3.22
2023-05-07T14:23:58.520Z,3.40
2023-05-07T14:26:28.064Z,3.42
2023-05-07T14:28:58.292Z,3.50
2023-05-07T14:31:26.658Z,3.25
2023-05-07T14:33:54.819Z,3.35
2023-05-07T14:36:26.982Z,4.88
2023-05-07T14:38:55.881Z,3.30
2023-05-07T14:41:24.639Z,5.65
2023-05-07T14:43:52.849Z,3.53
2023-05-07T14:46:21.262Z,3.38
2023-05-07T14:48:49.603Z,3.83
2023-05-07T14:51:17.728Z,3.75
2023-05-07T14:53:47.225Z,3.63
2023-05-07T14:56:15.338Z,4.57
2023-05-07T14:58:43.530Z,5.57
2023-05-07T15:01:11.710Z,3.72
2023-05-07T15:03:40.086Z,4.18
2023-05-07T15:06:08.401Z,3.85
2023-05-07T15:08:36.529Z,4.15
2023-05-07T15:11:06.011Z,4.68
2023-05-07T15:13:34.140Z,5.05
2023-05-07T15:16:02.246Z,4.72
2023-05-07T15:18:30.462Z,4.03
2023-05-07T15:20:59.170Z,4.80
2023-05-07T15:23:27.288Z,5.50
2023-05-07T15:25:55.420Z,3.90
2023-05-07T15:28:25.524Z,4.25
2023-05-07T15:30:56.152Z,4.40
2023-05-07T15:33:24.497Z,4.80
2023-05-07T15:35:52.694Z,4.10
2023-05-07T15:38:20.947Z,4.20
2023-05-07T15:40:49.032Z,4.47
2023-05-07T15:43:17.152Z,5.68
2023-05-07T15:45:46.890Z,4.15
2023-05-07T15:48:14.987Z,5.68
2023-05-07T15:50:43.283Z,4.97
2023-05-07T15:53:13.692Z,5.32
2023-05-07T15:55:43.143Z,5.03
2023-05-07T15:58:11.344Z,5.03
2023-05-07T16:00:41.296Z,10.77
2023-05-07T16:03:10.945Z,4.60
2023-05-07T16:05:39.206Z,5.00
2023-05-07T16:08:07.482Z,4.72
2023-05-07T16:10:35.896Z,5.88
2023-05-07T16:13:04.135Z,5.63
2023-05-07T16:15:32.300Z,5.82
2023-05-07T16:18:00.621Z,6.15
2023-05-07T16:20:31.147Z,5.05
2023-05-07T16:22:59.367Z,5.22
2023-05-07T16:25:27.581Z,4.78
2023-05-07T16:27:56.020Z,5.75
2023-05-07T16:30:24.178Z,5.28
2023-05-07T16:32:52.371Z,4.70
2023-05-07T16:35:20.728Z,4.65
2023-05-07T16:37:50.237Z,6.25
2023-05-07T16:40:18.439Z,5.53
2023-05-07T16:42:46.522Z,5.57
2023-05-07T16:45:14.879Z,4.53
2023-05-07T16:47:43.287Z,6.15
2023-05-07T16:50:11.998Z,5.03
2023-05-07T16:52:40.164Z,7.35
2023-05-07T16:55:10.029Z,4.30
2023-05-07T16:57:38.214Z,4.93
2023-05-07T17:00:07.853Z,4.50
2023-05-07T17:02:36.306Z,5.50
2023-05-07T17:05:06.235Z,4.68
2023-05-07T17:07:34.491Z,9.15
2023-05-07T17:10:03.365Z,4.88
2023-05-07T17:12:34.471Z,4.90
2023-05-07T17:15:02.801Z,9.40
2023-05-07T17:17:30.928Z,6.57
2023-05-07T17:20:00.060Z,6.68
2023-05-07T17:22:28.278Z,4.97
2023-05-07T17:24:56.394Z,4.55
2023-05-07T17:27:24.563Z,5.90
2023-05-07T17:29:54.146Z,4.65
2023-05-07T17:32:22.321Z,4.65
2023-05-07T17:34:50.645Z,5.88
2023-05-07T17:37:18.851Z,5.93
2023-05-07T17:39:46.974Z,8.27
2023-05-07T17:42:15.045Z,5.90
2023-05-07T17:44:43.121Z,5.20
2023-05-07T17:47:14.209Z,5.60
2023-05-07T17:49:42.397Z,4.78
2023-05-07T17:52:11.572Z,5.20
2023-05-07T17:54:39.604Z,5.72
2023-05-07T17:57:07.682Z,4.53
2023-05-07T17:59:35.815Z,7.38
2023-05-07T18:02:03.882Z,5.85
2023-05-07T18:04:33.331Z,5.57
2023-05-07T18:07:01.470Z,5.00
2023-05-07T18:09:29.546Z,8.30
2023-05-07T18:11:57.711Z,7.43
2023-05-07T18:14:26.146Z,5.75
2023-05-07T18:16:55.171Z,5.63
2023-05-07T18:19:23.269Z,5.40
2023-05-07T18:21:55.257Z,5.50
2023-05-07T18:24:23.338Z,7.22
2023-05-07T18:26:51.385Z,5.47
2023-05-07T18:29:19.535Z,6.32
2023-05-07T18:31:47.693Z,5.50
2023-05-07T18:34:15.784Z,9.02
2023-05-07T18:36:44.080Z,6.90
2023-05-07T18:39:13.591Z,5.72
2023-05-07T18:41:42.953Z,5.32
2023-05-07T18:44:11.006Z,5.53
2023-05-07T18:46:39.131Z,5.93
2023-05-07T18:49:07.310Z,9.05
2023-05-07T18:51:35.552Z,7.25
2023-05-07T18:54:03.619Z,5.22
2023-05-07T18:56:33.060Z,6.28
2023-05-07T18:59:01.173Z,5.25
2023-05-07T19:01:29.420Z,4.90
2023-05-07T19:03:57.858Z,7.43
2023-05-07T19:06:26.221Z,6.75
2023-05-07T19:08:54.350Z,6.88
2023-05-07T19:11:22.584Z,6.20
2023-05-07T19:13:52.153Z,4.82
2023-05-07T19:16:20.446Z,7.80
2023-05-07T19:18:49.529Z,7.45
2023-05-07T19:21:17.742Z,6.38
2023-05-07T19:23:46.576Z,7.53
2023-05-07T19:26:14.669Z,6.07
2023-05-07T19:28:45.885Z,6.80
2023-05-07T19:31:26.973Z,5.80
2023-05-07T19:33:55.555Z,5.78
2023-05-07T19:36:23.686Z,8.30
2023-05-07T19:38:53.294Z,7.20
2023-05-07T19:41:22.143Z,7.97
2023-05-07T19:43:50.369Z,7.90
2023-05-07T19:46:18.577Z,7.15
2023-05-07T19:48:48.179Z,6.05
2023-05-07T19:51:16.232Z,7.95
2023-05-07T19:53:45.047Z,6.82
2023-05-07T19:56:13.355Z,5.80
2023-05-07T19:58:41.758Z,6.13
2023-05-07T20:01:10.273Z,6.97
2023-05-07T20:03:38.546Z,7.55
2023-05-07T20:06:08.181Z,6.30
2023-05-07T20:08:36.289Z,5.65
2023-05-07T20:11:04.389Z,6.72
2023-05-07T20:13:32.500Z,6.15
2023-05-07T20:16:00.942Z,7.30
2023-05-07T20:18:30.049Z,6.22
2023-05-07T20:20:58.571Z,6.38
2023-05-07T20:23:28.060Z,6.75
2023-05-07T20:25:56.169Z,5.95
2023-05-07T20:28:24.438Z,7.35
2023-05-07T20:30:52.635Z,6.40
2023-05-07T20:33:20.840Z,6.00
2023-05-07T20:35:49.052Z,5.70
2023-05-07T20:38:17.229Z,6.72
2023-05-07T20:40:46.736Z,5.38
2023-05-07T20:43:14.819Z,5.55
2023-05-07T20:45:43.202Z,7.50
2023-05-07T20:48:11.362Z,6.15
2023-05-07T20:50:39.465Z,6.32
2023-05-07T20:53:07.544Z,6.28
2023-05-07T20:55:35.642Z,6.05
2023-05-07T20:58:05.114Z,5.30
2023-05-07T21:00:33.172Z,6.00
2023-05-07T21:03:01.284Z,5.90
2023-05-07T21:05:29.387Z,7.50
2023-05-07T21:07:57.800Z,5.50
2023-05-07T21:10:25.944Z,5.93
2023-05-07T21:12:54.204Z,7.28
2023-05-07T21:15:23.938Z,5.25
2023-05-07T21:17:52.014Z,5.70
2023-05-07T21:20:20.293Z,6.35
2023-05-07T21:22:48.346Z,6.00
2023-05-07T21:25:16.590Z,5.90
2023-05-07T21:27:44.745Z,8.00
2023-05-07T21:30:14.656Z,6.05
2023-05-07T21:32:44.302Z,5.72
2023-05-07T21:35:12.692Z,5.88
2023-05-07T21:37:40.761Z,5.20
2023-05-07T21:40:09.967Z,11.00
2023-05-07T21:42:38.212Z,6.15
2023-05-07T21:45:07.131Z,6.50
2023-05-07T21:47:35.251Z,5.95
2023-05-07T21:50:05.174Z,7.57
2023-05-07T21:52:33.322Z,6.25
2023-05-07T21:55:01.451Z,5.93
2023-05-07T21:57:29.601Z,8.00
2023-05-07T21:59:57.740Z,6.28
2023-05-07T22:02:26.351Z,7.57
2023-05-07T22:04:54.569Z,6.63
2023-05-07T22:07:24.012Z,7.72
2023-05-07T22:09:52.244Z,6.15
2023-05-07T22:12:20.951Z,7.63
2023-05-07T22:14:49.196Z,6.18
2023-05-07T22:17:17.303Z,6.18
2023-05-07T22:19:45.375Z,6.55
2023-05-07T22:22:13.445Z,7.78
2023-05-07T22:24:43.220Z,6.80
2023-05-07T22:27:11.315Z,6.35
2023-05-07T22:29:39.412Z,5.88
2023-05-07T22:32:08.328Z,6.30
2023-05-07T22:34:37.419Z,6.03
2023-05-07T22:37:05.510Z,8.05
2023-05-07T22:39:35.112Z,7.47
2023-05-07T22:42:04.786Z,5.63
2023-05-07T22:44:32.819Z,6.50
2023-05-07T22:47:00.877Z,5.90
2023-05-07T22:49:29.220Z,6.72
2023-05-07T22:51:57.380Z,6.63
2023-05-07T22:54:26.108Z,7.78
2023-05-07T22:56:54.253Z,6.53
2023-05-07T22:59:23.674Z,7.55
2023-05-07T23:01:51.757Z,6.75
2023-05-07T23:04:19.864Z,6.13
2023-05-07T23:06:47.953Z,7.43
2023-05-07T23:09:16.420Z,6.50
2023-05-07T23:11:44.623Z,6.88
2023-05-07T23:14:12.787Z,6.90
2023-05-07T23:16:42.737Z,6.88
2023-05-07T23:19:11.596Z,7.10
2023-05-07T23:21:39.695Z,6.40
2023-05-07T23:24:08.377Z,7.10
2023-05-07T23:26:36.535Z,7.05
2023-05-07T23:29:04.661Z,7.00
2023-05-07T23:31:32.847Z,6.28
2023-05-07T23:34:02.504Z,6.85
2023-05-07T23:36:32.586Z,5.95
2023-05-07T23:39:00.684Z,7.18
2023-05-07T23:41:28.768Z,8.32
2023-05-07T23:43:56.902Z,7.47
2023-05-07T23:46:25.330Z,7.03
2023-05-07T23:48:53.466Z,7.65
2023-05-07T23:51:22.968Z,8.48
2023-05-07T23:53:51.114Z,7.55
2023-05-07T23:56:19.454Z,8.25
2023-05-07T23:58:47.539Z,9.27
